CYOJ

High Level Airport

High Level, Alberta, Canada
METAR CYOJ 211300Z 35008KT 15SM SCT065 BKN200 13/10 A3000 RMK SC4CI1 CU EMBD SLP168
Observed Flight Rules
Jul-21 @ 13:00 UTC (50 minutes ago) Visual Flight Rules
Wind Visibility Clouds
350° at 8 knots 15 miles
  • Scattered at 6,500' AGL
  • Broken at 20,000' AGL
Temperatures Readings
Current 13°C / 55°F
Dewpoint 10°C / 50°F
Humidity 82%
Altimeter 30" Hg
Pressure 1016.8 hPa
Elevation 338
METAR CYOJ 211300Z 35008KT 15SM SCT065 BKN200 13/10 A3000 RMK SC4CI1 CU EMBD SLP168
Observed Flight Rules
Jul-21 @ 13:00 UTC
(50 minutes ago)
VFR
Wind Visibility
350° at 8 knots 15 miles
Clouds
  • Scattered at 6,500' AGL
  • Broken at 20,000' AGL
Temperature Dewpoint
13°C / 55°F 10°C / 50°F
Humidity Altimeter Pressure
82% 30" Hg 1016.8 hPa